createdAt,value
2023-02-12T00:00:44.995Z,79.82
2023-02-12T00:03:12.898Z,80.37
2023-02-12T00:05:41.744Z,79.74
2023-02-12T00:08:11.193Z,80.26
2023-02-12T00:10:41.765Z,81.53
2023-02-12T00:13:09.508Z,81.34
2023-02-12T00:15:41.075Z,82.07
2023-02-12T00:18:09.002Z,81.74
2023-02-12T00:20:37.983Z,81.34
2023-02-12T00:23:06.172Z,81.63
2023-02-12T00:25:33.972Z,81.29
2023-02-12T00:28:01.628Z,81.22
2023-02-12T00:30:29.797Z,82.10
2023-02-12T00:32:58.805Z,81.64
2023-02-12T00:35:26.406Z,81.81
2023-02-12T00:37:54.005Z,82.06
2023-02-12T00:40:21.749Z,82.46
2023-02-12T00:42:49.324Z,82.61
2023-02-12T00:45:17.080Z,82.48
2023-02-12T00:47:44.766Z,81.98
2023-02-12T00:50:13.773Z,82.32
2023-02-12T00:52:41.346Z,82.78
2023-02-12T00:55:09.173Z,82.04
2023-02-12T00:57:36.733Z,82.05
2023-02-12T01:00:05.063Z,82.46
2023-02-12T01:02:32.688Z,82.70
2023-02-12T01:05:00.445Z,83.10
2023-02-12T01:07:29.396Z,83.48
2023-02-12T01:09:57.003Z,83.35
2023-02-12T01:12:24.610Z,83.28
2023-02-12T01:14:52.406Z,82.50
2023-02-12T01:17:20.028Z,82.88
2023-02-12T01:19:47.622Z,83.04
2023-02-12T01:22:15.441Z,82.64
2023-02-12T01:24:44.337Z,82.78
2023-02-12T01:27:11.861Z,82.01
2023-02-12T01:29:39.793Z,82.32
2023-02-12T01:32:07.446Z,82.87
2023-02-12T01:34:35.140Z,82.62
2023-02-12T01:37:02.736Z,82.77
2023-02-12T01:39:30.334Z,82.94
2023-02-12T01:41:59.233Z,83.48
2023-02-12T01:44:31.260Z,83.25
2023-02-12T01:47:00.393Z,83.22
2023-02-12T01:49:32.789Z,83.20
2023-02-12T01:52:06.301Z,83.35
2023-02-12T01:54:35.953Z,83.36
2023-02-12T01:57:07.212Z,82.84
2023-02-12T01:59:37.396Z,82.75
2023-02-12T02:02:05.985Z,83.03
2023-02-12T02:04:41.225Z,82.92
2023-02-12T02:07:10.912Z,83.47
2023-02-12T02:09:40.257Z,83.57
2023-02-12T02:12:27.197Z,83.59
2023-02-12T02:14:58.977Z,83.97
2023-02-12T02:17:48.004Z,83.38
2023-02-12T02:20:51.387Z,83.60
2023-02-12T02:23:48.715Z,83.89
2023-02-12T02:26:43.430Z,83.52
2023-02-12T02:29:55.370Z,83.72
2023-02-12T02:32:27.850Z,83.37
2023-02-12T02:35:01.870Z,83.73
2023-02-12T02:37:34.029Z,83.39
2023-02-12T02:40:10.686Z,83.80
2023-02-12T02:42:43.079Z,84.49
2023-02-12T02:45:16.477Z,84.54
2023-02-12T02:47:49.839Z,83.81
2023-02-12T02:50:21.012Z,84.06
2023-02-12T02:52:54.266Z,83.81
2023-02-12T02:55:25.328Z,83.59
2023-02-12T02:57:57.412Z,83.20
2023-02-12T03:00:29.575Z,83.72
2023-02-12T03:03:03.232Z,83.43
2023-02-12T03:05:34.503Z,84.40
2023-02-12T03:08:09.671Z,83.85
2023-02-12T03:10:41.744Z,84.20
2023-02-12T03:13:13.239Z,83.74
2023-02-12T03:15:45.963Z,84.19
2023-02-12T03:18:20.698Z,84.04
2023-02-12T03:20:52.989Z,84.20
2023-02-12T03:23:26.481Z,84.13
2023-02-12T03:25:58.981Z,83.83
2023-02-12T03:28:30.834Z,84.22
2023-02-12T03:31:09.197Z,84.43
2023-02-12T03:33:50.917Z,84.83
2023-02-12T03:36:30.758Z,85.25
2023-02-12T03:39:07.147Z,84.86
2023-02-12T03:41:41.553Z,84.37
2023-02-12T03:44:17.488Z,84.78
2023-02-12T03:46:51.797Z,84.71
2023-02-12T03:49:25.564Z,84.44
2023-02-12T03:51:53.901Z,84.52
2023-02-12T03:54:23.050Z,84.59
2023-02-12T03:56:55.183Z,85.19
2023-02-12T03:59:25.141Z,85.27
2023-02-12T04:01:54.960Z,85.20
2023-02-12T04:04:25.015Z,85.13
2023-02-12T04:06:54.794Z,85.66
2023-02-12T04:09:24.191Z,85.39
2023-02-12T04:12:05.980Z,85.38
2023-02-12T04:14:42.180Z,85.86
2023-02-12T04:17:18.642Z,85.83
2023-02-12T04:19:55.865Z,86.21
2023-02-12T04:22:33.904Z,86.40
2023-02-12T04:25:10.856Z,86.96
2023-02-12T04:27:43.657Z,86.96
2023-02-12T04:30:19.037Z,86.96
2023-02-12T04:32:50.278Z,86.74
2023-02-12T04:35:23.798Z,87.10
2023-02-12T04:37:56.243Z,86.92
2023-02-12T04:40:24.490Z,87.00
2023-02-12T04:42:54.317Z,86.76
2023-02-12T04:45:25.166Z,86.65
2023-02-12T04:47:53.074Z,87.39
2023-02-12T04:50:22.450Z,87.57
2023-02-12T04:52:50.198Z,87.95
2023-02-12T04:55:17.970Z,88.29
2023-02-12T04:57:45.755Z,88.38
2023-02-12T05:00:15.809Z,88.18
2023-02-12T05:02:43.460Z,87.85
2023-02-12T05:05:11.141Z,88.11
2023-02-12T05:07:40.215Z,87.64
2023-02-12T05:10:09.611Z,87.76
2023-02-12T05:12:37.168Z,87.77
2023-02-12T05:15:05.460Z,87.76
2023-02-12T05:17:33.225Z,88.20
2023-02-12T05:20:00.810Z,88.25
2023-02-12T05:22:28.483Z,88.36
2023-02-12T05:24:57.375Z,88.44
2023-02-12T05:27:24.914Z,88.75
2023-02-12T05:29:52.490Z,88.84
2023-02-12T05:32:20.113Z,88.78
2023-02-12T05:34:47.819Z,88.94
2023-02-12T05:37:15.619Z,88.65
2023-02-12T05:39:43.226Z,88.47
2023-02-12T05:42:12.206Z,88.95
2023-02-12T05:44:39.857Z,88.43
2023-02-12T05:47:07.368Z,88.70
2023-02-12T05:49:34.942Z,88.30
2023-02-12T05:52:02.491Z,88.59
2023-02-12T05:54:30.026Z,88.08
2023-02-12T05:56:57.555Z,88.50
2023-02-12T05:59:26.476Z,88.73
2023-02-12T06:01:54.418Z,88.51
2023-02-12T06:04:23.975Z,88.87
2023-02-12T06:06:52.311Z,88.59
2023-02-12T06:09:20.210Z,88.83
2023-02-12T06:11:47.895Z,88.49
2023-02-12T06:14:17.229Z,88.10
2023-02-12T06:16:48.321Z,87.97
2023-02-12T06:19:16.256Z,87.99
2023-02-12T06:21:43.990Z,88.53
2023-02-12T06:24:13.598Z,88.38
2023-02-12T06:26:41.396Z,88.73
2023-02-12T06:29:08.984Z,88.03
2023-02-12T06:31:38.258Z,87.82
2023-02-12T06:34:17.957Z,88.13
2023-02-12T06:36:47.021Z,88.22
2023-02-12T06:39:17.307Z,88.23
2023-02-12T06:41:45.459Z,87.96
2023-02-12T06:44:14.012Z,88.54
2023-02-12T06:46:41.793Z,88.86
2023-02-12T06:49:14.158Z,88.72
2023-02-12T06:51:42.370Z,88.44
2023-02-12T06:54:14.736Z,87.94
2023-02-12T06:56:42.268Z,87.94
2023-02-12T06:59:14.043Z,87.40
2023-02-12T07:01:41.909Z,87.50
2023-02-12T07:04:12.357Z,87.05
2023-02-12T07:06:40.167Z,87.34
2023-02-12T07:09:07.768Z,86.65
2023-02-12T07:11:38.343Z,87.04
2023-02-12T07:14:06.499Z,86.32
2023-02-12T07:16:34.193Z,86.43
2023-02-12T07:19:01.916Z,86.10
2023-02-12T07:21:31.948Z,85.93
2023-02-12T07:23:59.544Z,85.92
2023-02-12T07:26:27.092Z,86.52
2023-02-12T07:28:54.637Z,86.43
2023-02-12T07:31:24.349Z,86.50
2023-02-12T07:33:55.224Z,86.90
2023-02-12T07:36:23.172Z,86.88
2023-02-12T07:38:52.143Z,86.58
2023-02-12T07:41:21.394Z,86.78
2023-02-12T07:43:50.616Z,86.27
2023-02-12T07:46:21.686Z,85.59
2023-02-12T07:48:49.686Z,85.91
2023-02-12T07:51:19.171Z,85.85
2023-02-12T07:53:46.924Z,85.60
2023-02-12T07:56:18.131Z,86.07
2023-02-12T07:58:47.168Z,85.82
2023-02-12T08:01:18.205Z,85.44
2023-02-12T08:03:47.023Z,85.09
2023-02-12T08:06:16.732Z,85.17
2023-02-12T08:08:44.774Z,85.11
2023-02-12T08:11:14.249Z,85.24
2023-02-12T08:13:43.585Z,84.94
2023-02-12T08:16:13.273Z,85.31
2023-02-12T08:18:40.933Z,84.98
2023-02-12T08:21:09.859Z,84.98
2023-02-12T08:23:38.130Z,84.03
2023-02-12T08:26:11.437Z,84.13
2023-02-12T08:28:41.000Z,84.66
2023-02-12T08:31:12.195Z,83.93
2023-02-12T08:33:39.801Z,84.61
2023-02-12T08:36:10.397Z,84.32
2023-02-12T08:38:38.890Z,82.53
2023-02-12T08:41:07.879Z,82.64
2023-02-12T08:43:36.008Z,82.92
2023-02-12T08:46:05.336Z,82.56
2023-02-12T08:48:34.464Z,83.06
2023-02-12T08:51:06.994Z,83.64
2023-02-12T08:53:34.953Z,83.39
2023-02-12T08:56:02.622Z,83.16
2023-02-12T08:58:30.310Z,81.50
2023-02-12T09:00:57.976Z,80.52
2023-02-12T09:03:25.971Z,80.82
2023-02-12T09:05:55.257Z,79.57
2023-02-12T09:08:23.028Z,79.71
2023-02-12T09:10:50.578Z,79.22
2023-02-12T09:13:18.323Z,79.84
2023-02-12T09:15:46.316Z,79.53
2023-02-12T09:18:15.886Z,82.34
2023-02-12T09:20:45.519Z,81.05
2023-02-12T09:23:15.492Z,80.80
2023-02-12T09:25:44.574Z,81.34
2023-02-12T09:28:13.578Z,80.42
2023-02-12T09:30:42.081Z,80.28
2023-02-12T09:33:12.292Z,80.52
2023-02-12T09:35:40.429Z,81.84
2023-02-12T09:38:09.291Z,80.72
2023-02-12T09:40:48.326Z,80.50
2023-02-12T09:43:19.634Z,80.94
2023-02-12T09:45:57.786Z,81.15
2023-02-12T09:48:55.431Z,81.91
2023-02-12T09:51:23.816Z,80.93
2023-02-12T09:54:00.553Z,81.53
2023-02-12T09:56:29.556Z,81.21
2023-02-12T09:59:00.528Z,80.10
2023-02-12T10:01:28.975Z,80.67
2023-02-12T10:03:57.540Z,80.83
2023-02-12T10:06:27.774Z,80.73
2023-02-12T10:09:02.208Z,81.42
2023-02-12T10:11:54.722Z,81.31
2023-02-12T10:14:58.696Z,80.31
2023-02-12T10:17:36.896Z,80.36
2023-02-12T10:20:32.728Z,81.21
2023-02-12T10:23:11.255Z,79.49
2023-02-12T10:25:48.640Z,80.19
2023-02-12T10:28:21.591Z,79.60
2023-02-12T10:30:53.908Z,79.04
2023-02-12T10:33:28.098Z,79.48
2023-02-12T10:36:00.275Z,80.41
2023-02-12T10:38:32.417Z,80.93
2023-02-12T10:41:01.854Z,79.98
2023-02-12T10:43:31.937Z,79.69
2023-02-12T10:45:59.582Z,79.36
2023-02-12T10:48:32.539Z,80.09
2023-02-12T10:51:13.923Z,79.40
2023-02-12T10:53:43.522Z,80.06
2023-02-12T10:56:17.674Z,79.87
2023-02-12T10:58:57.529Z,78.85
2023-02-12T11:01:28.069Z,79.82
2023-02-12T11:03:56.868Z,79.35
2023-02-12T11:06:27.681Z,78.39
2023-02-12T11:08:56.300Z,78.49
2023-02-12T11:11:26.445Z,77.83
2023-02-12T11:14:03.794Z,77.94
2023-02-12T11:16:34.052Z,77.91
2023-02-12T11:19:05.707Z,78.62
2023-02-12T11:21:34.022Z,78.40
2023-02-12T11:24:23.914Z,78.27
2023-02-12T11:26:51.480Z,78.18
2023-02-12T11:29:24.477Z,77.96
2023-02-12T11:32:03.702Z,77.30
2023-02-12T11:34:31.813Z,76.65
2023-02-12T11:36:59.995Z,78.97
2023-02-12T11:39:29.865Z,77.96
2023-02-12T11:42:00.420Z,76.64
2023-02-12T11:44:33.311Z,78.23
2023-02-12T11:47:08.708Z,76.70
2023-02-12T11:49:42.204Z,78.03
2023-02-12T11:52:21.524Z,76.17
2023-02-12T11:54:51.413Z,75.00
2023-02-12T11:57:38.641Z,76.11
2023-02-12T12:00:15.253Z,76.37
2023-02-12T12:02:47.847Z,75.15
2023-02-12T12:05:19.409Z,75.71
2023-02-12T12:07:57.142Z,74.71
2023-02-12T12:10:35.503Z,74.20
2023-02-12T12:13:06.644Z,73.32
2023-02-12T12:15:56.915Z,74.00
2023-02-12T12:18:48.949Z,74.23
2023-02-12T12:21:25.756Z,74.19
2023-02-12T12:23:58.069Z,73.68
2023-02-12T12:26:28.707Z,73.59
2023-02-12T12:29:02.852Z,74.21
2023-02-12T12:31:35.778Z,75.48
2023-02-12T12:34:08.656Z,73.90
2023-02-12T12:37:03.252Z,74.12
2023-02-12T12:39:37.960Z,73.90
2023-02-12T12:42:45.577Z,73.10
2023-02-12T12:45:30.384Z,73.58
2023-02-12T12:48:16.168Z,73.89
2023-02-12T12:51:01.381Z,72.94
2023-02-12T12:53:43.538Z,71.47
2023-02-12T12:56:35.155Z,71.38
2023-02-12T12:59:36.812Z,71.09
2023-02-12T13:02:38.204Z,71.63
2023-02-12T13:05:57.996Z,71.65
2023-02-12T13:08:53.178Z,70.97
2023-02-12T13:11:36.522Z,70.47
2023-02-12T13:14:15.729Z,70.50
2023-02-12T13:16:50.672Z,70.85
2023-02-12T13:19:33.755Z,70.26
2023-02-12T13:22:08.853Z,70.87
2023-02-12T13:24:43.559Z,70.34
2023-02-12T13:27:16.376Z,69.88
2023-02-12T13:29:47.581Z,69.87
2023-02-12T13:32:23.094Z,70.05
2023-02-12T13:34:54.456Z,69.66
2023-02-12T13:37:35.226Z,69.46
2023-02-12T13:40:05.791Z,70.30
2023-02-12T13:42:44.465Z,70.16
2023-02-12T13:45:28.080Z,69.81
2023-02-12T13:48:07.308Z,69.92
2023-02-12T13:50:42.939Z,70.56
2023-02-12T13:53:21.503Z,70.65
2023-02-12T13:56:06.691Z,70.10
2023-02-12T13:58:48.156Z,69.44
2023-02-12T14:01:37.590Z,71.07
2023-02-12T14:04:33.208Z,71.05
2023-02-12T14:07:05.027Z,70.08
2023-02-12T14:09:38.711Z,69.76
2023-02-12T14:12:08.315Z,68.82
2023-02-12T14:14:38.592Z,68.23
2023-02-12T14:17:53.852Z,69.28
2023-02-12T14:20:27.534Z,67.54
2023-02-12T14:23:20.112Z,67.57
2023-02-12T14:25:57.670Z,66.46
2023-02-12T14:28:30.911Z,66.50
2023-02-12T14:31:30.051Z,66.98
2023-02-12T14:34:31.000Z,67.32
2023-02-12T14:37:13.620Z,68.31
2023-02-12T14:39:41.255Z,68.14
2023-02-12T14:42:55.568Z,65.55
2023-02-12T14:45:34.952Z,65.68
2023-02-12T14:48:03.777Z,64.77
2023-02-12T14:50:39.445Z,65.47
2023-02-12T14:53:28.995Z,65.05
2023-02-12T14:55:58.264Z,66.45
2023-02-12T14:58:30.668Z,65.65
2023-02-12T15:01:01.211Z,65.27
2023-02-12T15:03:35.911Z,65.49
2023-02-12T15:06:08.684Z,66.13
2023-02-12T15:08:44.362Z,66.17
2023-02-12T15:11:25.965Z,66.80
2023-02-12T15:13:58.672Z,66.22
2023-02-12T15:16:35.503Z,66.91
2023-02-12T15:19:13.365Z,67.29
2023-02-12T15:21:41.951Z,67.83
2023-02-12T15:24:11.427Z,68.19
2023-02-12T15:26:42.684Z,68.56
2023-02-12T15:29:22.383Z,69.14
2023-02-12T15:31:55.993Z,69.83
2023-02-12T15:34:26.319Z,68.32
2023-02-12T15:36:56.200Z,70.84
2023-02-12T15:39:25.806Z,70.85
2023-02-12T15:41:53.439Z,69.19
2023-02-12T15:44:29.527Z,70.10
2023-02-12T15:47:03.998Z,70.90
2023-02-12T15:49:35.238Z,70.46
2023-02-12T15:52:06.036Z,71.11
2023-02-12T15:54:34.033Z,70.82
2023-02-12T15:57:02.852Z,72.30
2023-02-12T15:59:31.850Z,72.03
2023-02-12T16:02:03.257Z,70.89
2023-02-12T16:04:33.589Z,71.25
2023-02-12T16:07:02.430Z,72.69
2023-02-12T16:09:32.682Z,71.76
2023-02-12T16:12:03.197Z,71.51
2023-02-12T16:14:40.837Z,71.83
2023-02-12T16:17:22.105Z,71.71
2023-02-12T16:19:58.005Z,71.97
2023-02-12T16:22:29.657Z,72.70
2023-02-12T16:24:57.802Z,73.09
2023-02-12T16:27:28.343Z,74.67
2023-02-12T16:29:59.464Z,75.34
2023-02-12T16:32:38.326Z,76.51
2023-02-12T16:35:25.135Z,77.23
2023-02-12T16:37:56.319Z,77.39
2023-02-12T16:40:30.940Z,77.59
2023-02-12T16:43:04.176Z,77.91
2023-02-12T16:45:38.664Z,78.81
2023-02-12T16:48:17.212Z,79.32
2023-02-12T16:50:49.183Z,80.39
2023-02-12T16:53:34.343Z,80.87
2023-02-12T16:56:04.787Z,81.75
2023-02-12T16:58:32.565Z,81.51
2023-02-12T17:01:04.345Z,82.79
2023-02-12T17:03:32.497Z,83.43
2023-02-12T17:06:00.258Z,83.79
2023-02-12T17:08:27.827Z,83.21
2023-02-12T17:10:55.357Z,83.37
2023-02-12T17:13:22.956Z,84.01
2023-02-12T17:15:55.340Z,84.14
2023-02-12T17:18:25.180Z,85.36
2023-02-12T17:20:55.886Z,85.80
2023-02-12T17:23:24.613Z,85.50
2023-02-12T17:25:52.489Z,86.02
2023-02-12T17:28:20.878Z,86.45
2023-02-12T17:30:48.490Z,86.39
2023-02-12T17:33:17.067Z,87.04
2023-02-12T17:35:46.387Z,87.71
2023-02-12T17:38:14.146Z,88.45
2023-02-12T17:40:41.779Z,89.16
2023-02-12T17:43:09.559Z,88.60
2023-02-12T17:45:42.711Z,89.03
2023-02-12T17:48:10.523Z,89.03
2023-02-12T17:50:38.501Z,88.30
2023-02-12T17:53:07.963Z,89.69
2023-02-12T17:55:39.506Z,89.14
2023-02-12T17:58:08.199Z,89.36
2023-02-12T18:00:35.835Z,89.62
2023-02-12T18:03:03.439Z,90.04
2023-02-12T18:05:31.016Z,90.09
2023-02-12T18:07:58.653Z,90.21
2023-02-12T18:10:27.602Z,90.30
2023-02-12T18:12:55.230Z,91.02
2023-02-12T18:15:23.517Z,91.14
2023-02-12T18:17:51.190Z,91.62
2023-02-12T18:20:19.170Z,91.38
2023-02-12T18:22:47.295Z,91.94
2023-02-12T18:25:15.102Z,91.62
2023-02-12T18:27:44.254Z,92.01
2023-02-12T18:30:12.686Z,92.04
2023-02-12T18:32:40.273Z,92.65
2023-02-12T18:35:09.137Z,91.41
2023-02-12T18:37:36.965Z,91.88
2023-02-12T18:40:04.881Z,92.37
2023-02-12T18:42:33.266Z,91.45
2023-02-12T18:45:02.299Z,91.83
2023-02-12T18:47:29.932Z,91.43
2023-02-12T18:49:58.170Z,92.04
2023-02-12T18:52:26.148Z,90.86
2023-02-12T18:54:53.760Z,91.75
2023-02-12T18:57:21.513Z,91.95
2023-02-12T18:59:49.171Z,91.29
2023-02-12T19:02:18.390Z,91.25
2023-02-12T19:04:46.012Z,90.81
2023-02-12T19:07:13.654Z,90.64
2023-02-12T19:09:41.587Z,90.81
2023-02-12T19:12:09.234Z,90.78
2023-02-12T19:14:36.911Z,90.07
2023-02-12T19:17:04.702Z,90.24
2023-02-12T19:19:34.003Z,90.78
2023-02-12T19:22:01.736Z,91.23
2023-02-12T19:24:44.392Z,91.65
2023-02-12T19:27:13.744Z,91.20
2023-02-12T19:29:41.427Z,91.80
2023-02-12T19:32:09.221Z,92.20
2023-02-12T19:34:38.765Z,92.77
2023-02-12T19:37:08.255Z,91.89
2023-02-12T19:39:36.331Z,91.55
2023-02-12T19:42:04.055Z,92.53
2023-02-12T19:44:31.800Z,92.54
2023-02-12T19:46:59.523Z,91.49
2023-02-12T19:49:28.681Z,91.65
2023-02-12T19:51:57.779Z,92.45
2023-02-12T19:54:26.050Z,92.12
2023-02-12T19:56:55.182Z,92.03
2023-02-12T19:59:25.267Z,91.47
2023-02-12T20:01:53.093Z,92.41
2023-02-12T20:04:22.793Z,92.08
2023-02-12T20:06:50.833Z,91.56
2023-02-12T20:09:21.438Z,92.45
2023-02-12T20:11:50.099Z,92.76
2023-02-12T20:14:20.754Z,92.50
2023-02-12T20:16:48.399Z,91.72
2023-02-12T20:19:18.821Z,91.64
2023-02-12T20:21:48.904Z,92.09
2023-02-12T20:24:16.730Z,91.64
2023-02-12T20:26:45.875Z,91.33
2023-02-12T20:29:13.672Z,91.76
2023-02-12T20:31:41.441Z,91.41
2023-02-12T20:34:12.734Z,91.12
2023-02-12T20:36:43.197Z,91.70
2023-02-12T20:39:13.389Z,92.01
2023-02-12T20:41:42.280Z,92.48
2023-02-12T20:44:14.357Z,91.97
2023-02-12T20:46:42.579Z,91.77
2023-02-12T20:49:12.977Z,91.65
2023-02-12T20:51:41.010Z,92.19
2023-02-12T20:54:08.636Z,91.97
2023-02-12T20:56:38.645Z,92.31
2023-02-12T20:59:07.556Z,92.52
2023-02-12T21:01:38.568Z,92.59
2023-02-12T21:04:08.578Z,92.82
2023-02-12T21:06:36.663Z,92.96
2023-02-12T21:09:04.531Z,93.20
2023-02-12T21:11:32.195Z,92.68
2023-02-12T21:14:20.794Z,92.87
2023-02-12T21:16:49.659Z,93.47
2023-02-12T21:19:18.162Z,93.87
2023-02-12T21:21:46.046Z,94.05
2023-02-12T21:24:16.331Z,94.07
2023-02-12T21:26:44.361Z,93.58
2023-02-12T21:29:12.128Z,93.58
2023-02-12T21:31:42.038Z,94.24
2023-02-12T21:34:15.224Z,94.18
2023-02-12T21:36:44.996Z,94.10
2023-02-12T21:39:14.143Z,94.74
2023-02-12T21:41:43.942Z,94.34
2023-02-12T21:44:14.600Z,93.99
2023-02-12T21:46:42.907Z,93.85
2023-02-12T21:49:12.810Z,93.85
2023-02-12T21:51:42.301Z,94.51
2023-02-12T21:54:12.371Z,94.48
2023-02-12T21:56:41.437Z,94.64
2023-02-12T21:59:09.996Z,94.84
2023-02-12T22:01:42.276Z,95.10
2023-02-12T22:04:10.708Z,95.30
2023-02-12T22:06:42.624Z,94.86
2023-02-12T22:09:12.179Z,94.38
2023-02-12T22:11:41.381Z,94.96
2023-02-12T22:14:09.918Z,95.24
2023-02-12T22:16:38.887Z,95.58
2023-02-12T22:19:06.559Z,94.90
2023-02-12T22:21:37.217Z,94.62
2023-02-12T22:24:09.283Z,94.51
2023-02-12T22:26:37.442Z,94.93
2023-02-12T22:29:09.150Z,95.19
2023-02-12T22:31:39.173Z,95.95
2023-02-12T22:34:09.084Z,96.16
2023-02-12T22:36:38.529Z,95.97
2023-02-12T22:39:07.730Z,95.63
2023-02-12T22:41:35.905Z,94.98
2023-02-12T22:44:05.034Z,95.22
2023-02-12T22:46:33.156Z,94.78
2023-02-12T22:49:01.281Z,95.49
2023-02-12T22:51:30.976Z,95.88
2023-02-12T22:53:59.447Z,96.05
2023-02-12T22:56:28.470Z,95.80
2023-02-12T22:58:57.048Z,96.00
2023-02-12T23:01:25.071Z,96.03
2023-02-12T23:03:53.014Z,95.84
2023-02-12T23:06:23.156Z,96.30
2023-02-12T23:08:51.879Z,95.36
2023-02-12T23:11:19.921Z,95.77
2023-02-12T23:13:48.903Z,95.42
2023-02-12T23:16:16.563Z,95.15
2023-02-12T23:18:44.232Z,95.52
2023-02-12T23:21:12.111Z,95.70
2023-02-12T23:23:39.748Z,95.33
2023-02-12T23:26:07.661Z,95.37
2023-02-12T23:28:35.509Z,96.10
2023-02-12T23:31:04.619Z,96.19
2023-02-12T23:33:32.345Z,96.68
2023-02-12T23:36:00.216Z,96.95
2023-02-12T23:38:27.822Z,97.47
2023-02-12T23:40:55.643Z,97.47
2023-02-12T23:43:23.482Z,97.07
2023-02-12T23:45:51.036Z,97.62
2023-02-12T23:48:20.063Z,98.08
2023-02-12T23:50:49.800Z,97.97
2023-02-12T23:53:18.969Z,97.90
2023-02-12T23:55:46.823Z,98.00
2023-02-12T23:58:14.348Z,98.06
